Aérodrome :
LOGIN :

S'inscrire | Disclaimer

   EN    FR    IT 

 










Légende :    VFR   VFR Marginal   IFR   IFR Intensif   IFR Très Intensif
Visi : 
Plafond : 
>= 8 km
>= 3000ft
5 à 8 km
1000 à 3000 ft
1500m à 5 km
500 à 1000 ft
800 à 1500m
200 à 500 ft
< 800m
< 200 ft
Symboles :   Orages  Brouillard  Fortes neiges  Fortes précipitations  Vent > 20 kt
SIGMETs :   Divers  Orages  Givrage  Turbulence  Onde Orograph.  Cendres Volcan.






- Altitude de l'aérodrome : 82 ft
- Code IATA : QIE


LFMI - Istres

DERNIER METAR :
  • 130330Z AUTO 34032G43KT CAVOK 08/M03 Q1020 NOSIG

METARs EXPIRÉS :
  • 130300Z AUTO 34033KT CAVOK 08/M03 Q1020 BECMG 33030G45KT
  • 130230Z AUTO 34031G42KT CAVOK 08/M03 Q1020 NOSIG
  • 130200Z AUTO 34031G42KT CAVOK 08/M03 Q1020 NOSIG
  • 130130Z AUTO 34031G42KT CAVOK 08/M03 Q1021 NOSIG
  • 130100Z AUTO 34029KT CAVOK 08/M03 Q1021 BECMG 33030G45KT

TAF TAF LFMI
Valide du 13 à 03h jusqu'au 14 à 03h UTC


130200Z 1303/1403 33030G45KT CAVOK TX17/1314Z TN05/1403Z
BECMG 1317/1319 34020G35KT
BECMG 1401/1403 36012KT



MET'MAP, la Météo Aéronautique d'un coup d'oeil ! - Copyright ORBIFLY Décembre 2007 - Disclaimer

ORBIFLY MET'MAP TEAM :

Programmation & Développement : Alexandra Zaïnal
Sur une idée originale de : Baudouin d'Aumeries
Assistance à la programmation : Marc-Olivier Méhu
Soutien technique & logistique : Manuel Goepfert

Contact : metmap@orbifly.com




SOURCES & CREDITS :

   NOAA